sensor_id;sensor_type;location;lat;lon;timestamp;temperature;humidity
45983;DHT22;31711;47.158;7.346;2023-06-05T00:01:42;14.30;99.90
45983;DHT22;31711;47.158;7.346;2023-06-05T00:04:09;14.20;99.90
45983;DHT22;31711;47.158;7.346;2023-06-05T00:06:35;14.20;99.90
45983;DHT22;31711;47.158;7.346;2023-06-05T00:09:04;14.20;99.90
45983;DHT22;31711;47.158;7.346;2023-06-05T00:11:30;14.20;99.90
45983;DHT22;31711;47.158;7.346;2023-06-05T00:13:56;14.10;99.90
45983;DHT22;31711;47.158;7.346;2023-06-05T00:16:23;14.10;99.90
45983;DHT22;31711;47.158;7.346;2023-06-05T00:18:49;14.10;99.90
45983;DHT22;31711;47.158;7.346;2023-06-05T00:21:15;14.10;99.90
45983;DHT22;31711;47.158;7.346;2023-06-05T00:23:45;14.10;99.90
45983;DHT22;31711;47.158;7.346;2023-06-05T00:26:11;14.00;99.90
45983;DHT22;31711;47.158;7.346;2023-06-05T00:28:37;14.00;99.90
45983;DHT22;31711;47.158;7.346;2023-06-05T00:31:04;14.00;99.90
45983;DHT22;31711;47.158;7.346;2023-06-05T00:33:31;14.00;99.90
45983;DHT22;31711;47.158;7.346;2023-06-05T00:35:57;14.00;99.90
45983;DHT22;31711;47.158;7.346;2023-06-05T00:38:23;14.00;99.90
45983;DHT22;31711;47.158;7.346;2023-06-05T00:40:49;13.90;99.90
45983;DHT22;31711;47.158;7.346;2023-06-05T00:43:16;13.80;99.90
45983;DHT22;31711;47.158;7.346;2023-06-05T00:45:42;13.80;99.90
45983;DHT22;31711;47.158;7.346;2023-06-05T00:48:08;13.80;99.90
45983;DHT22;31711;47.158;7.346;2023-06-05T00:50:34;13.70;99.90
45983;DHT22;31711;47.158;7.346;2023-06-05T00:53:03;13.60;99.90
45983;DHT22;31711;47.158;7.346;2023-06-05T00:55:29;13.60;99.90
45983;DHT22;31711;47.158;7.346;2023-06-05T00:57:55;13.60;99.90
45983;DHT22;31711;47.158;7.346;2023-06-05T01:00:22;13.60;99.90
45983;DHT22;31711;47.158;7.346;2023-06-05T01:02:49;13.60;99.90
45983;DHT22;31711;47.158;7.346;2023-06-05T01:05:19;13.60;99.90
45983;DHT22;31711;47.158;7.346;2023-06-05T01:07:46;13.50;99.90
45983;DHT22;31711;47.158;7.346;2023-06-05T01:10:14;13.50;99.90
45983;DHT22;31711;47.158;7.346;2023-06-05T01:13:25;13.50;99.90
45983;DHT22;31711;47.158;7.346;2023-06-05T01:15:52;13.50;99.90
45983;DHT22;31711;47.158;7.346;2023-06-05T01:18:21;13.50;99.90
45983;DHT22;31711;47.158;7.346;2023-06-05T01:20:48;13.40;99.90
45983;DHT22;31711;47.158;7.346;2023-06-05T01:23:16;13.40;99.90
45983;DHT22;31711;47.158;7.346;2023-06-05T01:25:42;13.40;99.90
45983;DHT22;31711;47.158;7.346;2023-06-05T01:28:25;13.40;99.90
45983;DHT22;31711;47.158;7.346;2023-06-05T01:31:09;13.40;99.90
45983;DHT22;31711;47.158;7.346;2023-06-05T01:34:03;13.40;99.90
45983;DHT22;31711;47.158;7.346;2023-06-05T01:36:31;13.30;99.90
45983;DHT22;31711;47.158;7.346;2023-06-05T01:38:58;13.30;99.90
45983;DHT22;31711;47.158;7.346;2023-06-05T01:41:26;13.20;99.90
45983;DHT22;31711;47.158;7.346;2023-06-05T01:43:52;13.20;99.90
45983;DHT22;31711;47.158;7.346;2023-06-05T01:46:21;13.20;99.90
45983;DHT22;31711;47.158;7.346;2023-06-05T01:48:48;13.10;99.90
45983;DHT22;31711;47.158;7.346;2023-06-05T01:51:14;13.10;99.90
45983;DHT22;31711;47.158;7.346;2023-06-05T01:53:40;13.10;99.90
45983;DHT22;31711;47.158;7.346;2023-06-05T01:56:06;13.00;99.90
45983;DHT22;31711;47.158;7.346;2023-06-05T01:58:34;13.00;99.90
45983;DHT22;31711;47.158;7.346;2023-06-05T02:01:01;13.00;99.90
45983;DHT22;31711;47.158;7.346;2023-06-05T02:03:28;12.80;99.90
45983;DHT22;31711;47.158;7.346;2023-06-05T02:05:54;12.80;99.90
45983;DHT22;31711;47.158;7.346;2023-06-05T02:08:20;12.80;99.90
45983;DHT22;31711;47.158;7.346;2023-06-05T02:10:49;12.70;99.90
45983;DHT22;31711;47.158;7.346;2023-06-05T02:13:15;12.70;99.90
45983;DHT22;31711;47.158;7.346;2023-06-05T02:15:42;12.80;99.90
45983;DHT22;31711;47.158;7.346;2023-06-05T02:18:11;12.80;99.90
45983;DHT22;31711;47.158;7.346;2023-06-05T02:20:37;12.70;99.90
45983;DHT22;31711;47.158;7.346;2023-06-05T02:23:03;12.70;99.90
45983;DHT22;31711;47.158;7.346;2023-06-05T02:25:30;12.70;99.90
45983;DHT22;31711;47.158;7.346;2023-06-05T02:27:57;12.70;99.90
45983;DHT22;31711;47.158;7.346;2023-06-05T02:30:23;12.70;99.90
45983;DHT22;31711;47.158;7.346;2023-06-05T02:32:50;12.70;99.90
45983;DHT22;31711;47.158;7.346;2023-06-05T02:35:22;12.70;99.90
45983;DHT22;31711;47.158;7.346;2023-06-05T02:37:49;12.70;99.90
45983;DHT22;31711;47.158;7.346;2023-06-05T02:40:15;12.70;99.90
45983;DHT22;31711;47.158;7.346;2023-06-05T02:42:41;12.70;99.90
45983;DHT22;31711;47.158;7.346;2023-06-05T02:45:08;12.70;99.90
45983;DHT22;31711;47.158;7.346;2023-06-05T02:47:34;12.70;99.90
45983;DHT22;31711;47.158;7.346;2023-06-05T02:50:01;12.60;99.90
45983;DHT22;31711;47.158;7.346;2023-06-05T02:52:27;12.60;99.90
45983;DHT22;31711;47.158;7.346;2023-06-05T02:54:54;12.40;99.90
45983;DHT22;31711;47.158;7.346;2023-06-05T02:57:20;12.40;99.90
45983;DHT22;31711;47.158;7.346;2023-06-05T02:59:46;12.40;99.90
45983;DHT22;31711;47.158;7.346;2023-06-05T03:02:12;12.40;99.90
45983;DHT22;31711;47.158;7.346;2023-06-05T03:04:38;12.40;99.90
45983;DHT22;31711;47.158;7.346;2023-06-05T03:07:08;12.40;99.90
45983;DHT22;31711;47.158;7.346;2023-06-05T03:09:35;12.40;99.90
45983;DHT22;31711;47.158;7.346;2023-06-05T03:12:02;12.40;99.90
45983;DHT22;31711;47.158;7.346;2023-06-05T03:14:28;12.30;99.90
45983;DHT22;31711;47.158;7.346;2023-06-05T03:16:56;12.30;99.90
45983;DHT22;31711;47.158;7.346;2023-06-05T03:19:25;12.30;99.90
45983;DHT22;31711;47.158;7.346;2023-06-05T03:21:52;12.20;99.90
45983;DHT22;31711;47.158;7.346;2023-06-05T03:24:19;12.20;99.90
45983;DHT22;31711;47.158;7.346;2023-06-05T03:26:45;12.20;99.90
45983;DHT22;31711;47.158;7.346;2023-06-05T03:29:11;12.20;99.90
45983;DHT22;31711;47.158;7.346;2023-06-05T03:31:37;12.20;99.90
45983;DHT22;31711;47.158;7.346;2023-06-05T03:34:03;12.20;99.90
45983;DHT22;31711;47.158;7.346;2023-06-05T03:36:30;12.10;99.90
45983;DHT22;31711;47.158;7.346;2023-06-05T03:38:59;12.20;99.90
45983;DHT22;31711;47.158;7.346;2023-06-05T03:41:25;12.20;99.90
45983;DHT22;31711;47.158;7.346;2023-06-05T03:43:51;12.20;99.90
45983;DHT22;31711;47.158;7.346;2023-06-05T03:46:18;12.10;99.90
45983;DHT22;31711;47.158;7.346;2023-06-05T03:48:48;12.20;99.90
45983;DHT22;31711;47.158;7.346;2023-06-05T03:51:25;12.20;99.90
45983;DHT22;31711;47.158;7.346;2023-06-05T03:53:59;12.20;99.90
45983;DHT22;31711;47.158;7.346;2023-06-05T03:56:26;12.20;99.90
45983;DHT22;31711;47.158;7.346;2023-06-05T03:59:00;12.20;99.90
45983;DHT22;31711;47.158;7.346;2023-06-05T04:01:35;12.20;99.90
45983;DHT22;31711;47.158;7.346;2023-06-05T04:04:06;12.30;99.90
45983;DHT22;31711;47.158;7.346;2023-06-05T04:06:33;12.30;99.90
45983;DHT22;31711;47.158;7.346;2023-06-05T04:09:00;12.40;99.90
45983;DHT22;31711;47.158;7.346;2023-06-05T04:11:26;12.40;99.90
45983;DHT22;31711;47.158;7.346;2023-06-05T04:13:53;12.40;99.90
45983;DHT22;31711;47.158;7.346;2023-06-05T04:16:20;12.50;99.90
45983;DHT22;31711;47.158;7.346;2023-06-05T04:18:46;12.60;99.90
45983;DHT22;31711;47.158;7.346;2023-06-05T04:21:12;12.70;99.90
45983;DHT22;31711;47.158;7.346;2023-06-05T04:23:38;12.70;99.90
45983;DHT22;31711;47.158;7.346;2023-06-05T04:26:04;12.70;99.90
45983;DHT22;31711;47.158;7.346;2023-06-05T04:28:31;12.70;99.90
45983;DHT22;31711;47.158;7.346;2023-06-05T04:30:57;12.80;99.90
45983;DHT22;31711;47.158;7.346;2023-06-05T04:33:22;12.90;99.90
45983;DHT22;31711;47.158;7.346;2023-06-05T04:35:48;13.00;99.90
45983;DHT22;31711;47.158;7.346;2023-06-05T04:38:15;13.10;99.90
45983;DHT22;31711;47.158;7.346;2023-06-05T04:40:47;13.10;99.90
45983;DHT22;31711;47.158;7.346;2023-06-05T04:43:14;13.20;99.90
45983;DHT22;31711;47.158;7.346;2023-06-05T04:45:40;13.20;99.90
45983;DHT22;31711;47.158;7.346;2023-06-05T04:48:08;13.20;99.90
45983;DHT22;31711;47.158;7.346;2023-06-05T04:50:34;13.30;99.90
45983;DHT22;31711;47.158;7.346;2023-06-05T04:53:01;13.30;99.90
45983;DHT22;31711;47.158;7.346;2023-06-05T04:55:27;13.40;99.90
45983;DHT22;31711;47.158;7.346;2023-06-05T04:57:53;13.50;99.90
45983;DHT22;31711;47.158;7.346;2023-06-05T05:00:19;13.60;99.90
45983;DHT22;31711;47.158;7.346;2023-06-05T05:02:45;13.70;99.90
45983;DHT22;31711;47.158;7.346;2023-06-05T05:05:12;13.70;99.90
45983;DHT22;31711;47.158;7.346;2023-06-05T05:07:40;13.90;99.90
45983;DHT22;31711;47.158;7.346;2023-06-05T05:10:08;14.00;99.90
45983;DHT22;31711;47.158;7.346;2023-06-05T05:12:34;14.10;99.90
45983;DHT22;31711;47.158;7.346;2023-06-05T05:15:02;14.10;99.90
45983;DHT22;31711;47.158;7.346;2023-06-05T05:17:29;14.20;99.90
45983;DHT22;31711;47.158;7.346;2023-06-05T05:19:56;14.10;99.90
45983;DHT22;31711;47.158;7.346;2023-06-05T05:22:21;14.00;99.90
45983;DHT22;31711;47.158;7.346;2023-06-05T05:24:47;14.10;99.90
45983;DHT22;31711;47.158;7.346;2023-06-05T05:27:13;14.20;99.90
45983;DHT22;31711;47.158;7.346;2023-06-05T05:29:39;14.20;99.90
45983;DHT22;31711;47.158;7.346;2023-06-05T05:32:05;14.40;99.90
45983;DHT22;31711;47.158;7.346;2023-06-05T05:34:31;14.60;99.90
45983;DHT22;31711;47.158;7.346;2023-06-05T05:36:59;14.70;99.90
45983;DHT22;31711;47.158;7.346;2023-06-05T05:39:25;14.80;99.90
45983;DHT22;31711;47.158;7.346;2023-06-05T05:41:51;14.90;99.90
45983;DHT22;31711;47.158;7.346;2023-06-05T05:44:17;14.90;99.90
45983;DHT22;31711;47.158;7.346;2023-06-05T05:46:46;14.90;99.90
45983;DHT22;31711;47.158;7.346;2023-06-05T05:49:13;14.70;99.90
45983;DHT22;31711;47.158;7.346;2023-06-05T05:51:39;14.60;99.90
45983;DHT22;31711;47.158;7.346;2023-06-05T05:54:05;14.80;99.90
45983;DHT22;31711;47.158;7.346;2023-06-05T05:56:31;14.90;99.90
45983;DHT22;31711;47.158;7.346;2023-06-05T05:58:59;15.20;99.90
45983;DHT22;31711;47.158;7.346;2023-06-05T06:01:26;15.30;99.90
45983;DHT22;31711;47.158;7.346;2023-06-05T06:03:53;15.20;99.90
45983;DHT22;31711;47.158;7.346;2023-06-05T06:06:20;15.20;99.90
45983;DHT22;31711;47.158;7.346;2023-06-05T06:08:46;15.40;99.90
45983;DHT22;31711;47.158;7.346;2023-06-05T06:11:12;15.60;99.90
45983;DHT22;31711;47.158;7.346;2023-06-05T06:13:38;15.80;99.90
45983;DHT22;31711;47.158;7.346;2023-06-05T06:16:04;15.90;99.90
45983;DHT22;31711;47.158;7.346;2023-06-05T06:18:31;16.00;99.90
45983;DHT22;31711;47.158;7.346;2023-06-05T06:20:57;16.20;99.90
45983;DHT22;31711;47.158;7.346;2023-06-05T06:23:24;16.30;99.90
45983;DHT22;31711;47.158;7.346;2023-06-05T06:25:50;16.30;99.90
45983;DHT22;31711;47.158;7.346;2023-06-05T06:28:17;16.30;99.90
45983;DHT22;31711;47.158;7.346;2023-06-05T06:30:45;16.40;99.90
45983;DHT22;31711;47.158;7.346;2023-06-05T06:33:11;16.50;99.90
45983;DHT22;31711;47.158;7.346;2023-06-05T06:35:37;16.70;99.90
45983;DHT22;31711;47.158;7.346;2023-06-05T06:38:03;16.90;99.90
45983;DHT22;31711;47.158;7.346;2023-06-05T06:40:29;17.10;99.90
45983;DHT22;31711;47.158;7.346;2023-06-05T06:42:55;17.10;99.90
45983;DHT22;31711;47.158;7.346;2023-06-05T06:45:21;17.20;99.90
45983;DHT22;31711;47.158;7.346;2023-06-05T06:47:47;17.20;99.90
45983;DHT22;31711;47.158;7.346;2023-06-05T06:50:13;17.20;99.90
45983;DHT22;31711;47.158;7.346;2023-06-05T06:52:40;17.40;99.90
45983;DHT22;31711;47.158;7.346;2023-06-05T06:55:06;17.60;99.90
45983;DHT22;31711;47.158;7.346;2023-06-05T06:57:33;17.70;99.90
45983;DHT22;31711;47.158;7.346;2023-06-05T06:59:59;17.80;99.90
45983;DHT22;31711;47.158;7.346;2023-06-05T07:02:25;17.80;99.90
45983;DHT22;31711;47.158;7.346;2023-06-05T07:04:51;17.90;99.90
45983;DHT22;31711;47.158;7.346;2023-06-05T07:07:20;18.10;99.90
45983;DHT22;31711;47.158;7.346;2023-06-05T07:09:49;17.80;99.90
45983;DHT22;31711;47.158;7.346;2023-06-05T07:12:17;18.00;99.90
45983;DHT22;31711;47.158;7.346;2023-06-05T07:14:45;18.20;99.90
45983;DHT22;31711;47.158;7.346;2023-06-05T07:17:11;18.30;99.90
45983;DHT22;31711;47.158;7.346;2023-06-05T07:19:37;18.20;99.90
45983;DHT22;31711;47.158;7.346;2023-06-05T07:22:05;18.40;99.90
45983;DHT22;31711;47.158;7.346;2023-06-05T07:24:32;18.50;99.90
45983;DHT22;31711;47.158;7.346;2023-06-05T07:27:00;18.60;99.90
45983;DHT22;31711;47.158;7.346;2023-06-05T07:29:26;18.70;99.90
45983;DHT22;31711;47.158;7.346;2023-06-05T07:31:56;18.90;99.90
45983;DHT22;31711;47.158;7.346;2023-06-05T07:34:23;18.90;99.90
45983;DHT22;31711;47.158;7.346;2023-06-05T07:36:51;18.90;99.90
45983;DHT22;31711;47.158;7.346;2023-06-05T07:39:19;19.10;99.90
45983;DHT22;31711;47.158;7.346;2023-06-05T07:41:45;19.20;99.90
45983;DHT22;31711;47.158;7.346;2023-06-05T07:44:13;19.30;99.90
45983;DHT22;31711;47.158;7.346;2023-06-05T07:46:43;19.50;99.90
45983;DHT22;31711;47.158;7.346;2023-06-05T07:49:09;19.60;99.90
45983;DHT22;31711;47.158;7.346;2023-06-05T07:51:36;19.60;99.90
45983;DHT22;31711;47.158;7.346;2023-06-05T07:54:06;19.60;99.90
45983;DHT22;31711;47.158;7.346;2023-06-05T07:56:33;19.60;99.90
45983;DHT22;31711;47.158;7.346;2023-06-05T07:59:00;19.70;99.90
45983;DHT22;31711;47.158;7.346;2023-06-05T08:01:27;19.50;99.90
45983;DHT22;31711;47.158;7.346;2023-06-05T08:03:53;19.80;99.90
45983;DHT22;31711;47.158;7.346;2023-06-05T08:06:20;19.90;99.90
45983;DHT22;31711;47.158;7.346;2023-06-05T08:08:46;19.80;99.90
45983;DHT22;31711;47.158;7.346;2023-06-05T08:11:12;19.90;99.90
45983;DHT22;31711;47.158;7.346;2023-06-05T08:13:38;20.00;99.90
45983;DHT22;31711;47.158;7.346;2023-06-05T08:16:05;20.10;99.90
45983;DHT22;31711;47.158;7.346;2023-06-05T08:18:31;20.20;99.90
45983;DHT22;31711;47.158;7.346;2023-06-05T08:20:57;20.20;99.90
45983;DHT22;31711;47.158;7.346;2023-06-05T08:23:23;20.10;99.90
45983;DHT22;31711;47.158;7.346;2023-06-05T08:25:49;20.20;99.90
45983;DHT22;31711;47.158;7.346;2023-06-05T08:28:15;20.40;99.90
45983;DHT22;31711;47.158;7.346;2023-06-05T08:30:42;19.90;99.90
45983;DHT22;31711;47.158;7.346;2023-06-05T08:33:10;19.70;99.90
45983;DHT22;31711;47.158;7.346;2023-06-05T08:35:39;19.90;99.90
45983;DHT22;31711;47.158;7.346;2023-06-05T08:38:05;20.30;99.90
45983;DHT22;31711;47.158;7.346;2023-06-05T08:40:32;20.40;99.90
45983;DHT22;31711;47.158;7.346;2023-06-05T08:43:00;20.40;99.90
45983;DHT22;31711;47.158;7.346;2023-06-05T08:45:31;20.60;99.90
45983;DHT22;31711;47.158;7.346;2023-06-05T08:48:00;20.80;99.90
45983;DHT22;31711;47.158;7.346;2023-06-05T08:50:30;20.70;99.90
45983;DHT22;31711;47.158;7.346;2023-06-05T08:52:59;21.00;99.90
45983;DHT22;31711;47.158;7.346;2023-06-05T08:55:27;21.10;99.90
45983;DHT22;31711;47.158;7.346;2023-06-05T08:57:54;21.20;99.90
45983;DHT22;31711;47.158;7.346;2023-06-05T09:00:21;21.20;99.90
45983;DHT22;31711;47.158;7.346;2023-06-05T09:02:47;21.40;99.90
45983;DHT22;31711;47.158;7.346;2023-06-05T09:05:14;21.40;99.80
45983;DHT22;31711;47.158;7.346;2023-06-05T09:07:41;21.60;99.90
45983;DHT22;31711;47.158;7.346;2023-06-05T09:10:25;21.60;99.80
45983;DHT22;31711;47.158;7.346;2023-06-05T09:12:57;21.30;99.40
45983;DHT22;31711;47.158;7.346;2023-06-05T09:15:28;21.40;99.90
45983;DHT22;31711;47.158;7.346;2023-06-05T09:18:14;21.50;99.90
45983;DHT22;31711;47.158;7.346;2023-06-05T09:20:43;21.80;99.30
45983;DHT22;31711;47.158;7.346;2023-06-05T09:23:25;21.60;99.90
45983;DHT22;31711;47.158;7.346;2023-06-05T09:25:53;22.10;99.90
45983;DHT22;31711;47.158;7.346;2023-06-05T09:28:19;22.20;99.80
45983;DHT22;31711;47.158;7.346;2023-06-05T09:30:58;22.50;99.90
45983;DHT22;31711;47.158;7.346;2023-06-05T09:33:26;22.70;99.20
45983;DHT22;31711;47.158;7.346;2023-06-05T09:36:09;22.80;99.80
45983;DHT22;31711;47.158;7.346;2023-06-05T09:38:37;22.90;98.70
45983;DHT22;31711;47.158;7.346;2023-06-05T09:41:07;23.00;98.50
45983;DHT22;31711;47.158;7.346;2023-06-05T09:43:34;23.00;97.70
45983;DHT22;31711;47.158;7.346;2023-06-05T09:46:07;23.30;98.10
45983;DHT22;31711;47.158;7.346;2023-06-05T09:48:34;23.40;98.10
45983;DHT22;31711;47.158;7.346;2023-06-05T09:51:12;23.30;95.90
45983;DHT22;31711;47.158;7.346;2023-06-05T09:53:42;23.30;95.30
45983;DHT22;31711;47.158;7.346;2023-06-05T09:56:12;23.40;95.10
45983;DHT22;31711;47.158;7.346;2023-06-05T09:58:43;23.60;94.60
45983;DHT22;31711;47.158;7.346;2023-06-05T10:01:10;23.90;94.50
45983;DHT22;31711;47.158;7.346;2023-06-05T10:03:38;23.70;95.20
45983;DHT22;31711;47.158;7.346;2023-06-05T10:06:07;23.70;93.90
45983;DHT22;31711;47.158;7.346;2023-06-05T10:08:33;24.00;94.50
45983;DHT22;31711;47.158;7.346;2023-06-05T10:11:01;24.10;93.50
45983;DHT22;31711;47.158;7.346;2023-06-05T10:13:28;24.30;92.10
45983;DHT22;31711;47.158;7.346;2023-06-05T10:15:54;24.20;91.90
45983;DHT22;31711;47.158;7.346;2023-06-05T10:18:22;24.20;91.80
45983;DHT22;31711;47.158;7.346;2023-06-05T10:20:48;24.10;91.80
45983;DHT22;31711;47.158;7.346;2023-06-05T10:23:19;24.30;91.90
45983;DHT22;31711;47.158;7.346;2023-06-05T10:25:46;24.30;90.60
45983;DHT22;31711;47.158;7.346;2023-06-05T10:28:49;24.00;91.10
45983;DHT22;31711;47.158;7.346;2023-06-05T10:31:20;24.40;90.60
45983;DHT22;31711;47.158;7.346;2023-06-05T10:39:23;24.60;91.80
45983;DHT22;31711;47.158;7.346;2023-06-05T10:41:51;24.60;90.90
45983;DHT22;31711;47.158;7.346;2023-06-05T10:44:17;24.30;89.90
45983;DHT22;31711;47.158;7.346;2023-06-05T10:46:43;24.30;90.00
45983;DHT22;31711;47.158;7.346;2023-06-05T10:49:13;24.40;90.20
45983;DHT22;31711;47.158;7.346;2023-06-05T10:51:45;24.80;90.80
45983;DHT22;31711;47.158;7.346;2023-06-05T10:57:00;24.50;89.50
45983;DHT22;31711;47.158;7.346;2023-06-05T10:59:35;24.30;89.10
45983;DHT22;31711;47.158;7.346;2023-06-05T11:15:36;25.50;90.10
45983;DHT22;31711;47.158;7.346;2023-06-05T11:18:55;25.70;90.40
45983;DHT22;31711;47.158;7.346;2023-06-05T11:21:15;25.70;88.80
45983;DHT22;31711;47.158;7.346;2023-06-05T11:24:18;25.90;87.70
45983;DHT22;31711;47.158;7.346;2023-06-05T11:26:45;25.90;89.60
45983;DHT22;31711;47.158;7.346;2023-06-05T11:29:15;25.50;88.80
45983;DHT22;31711;47.158;7.346;2023-06-05T11:31:43;25.20;88.40
45983;DHT22;31711;47.158;7.346;2023-06-05T11:34:13;25.00;89.30
45983;DHT22;31711;47.158;7.346;2023-06-05T11:36:40;25.20;90.00
45983;DHT22;31711;47.158;7.346;2023-06-05T11:39:06;25.40;89.60
45983;DHT22;31711;47.158;7.346;2023-06-05T11:41:33;25.20;86.70
45983;DHT22;31711;47.158;7.346;2023-06-05T11:44:00;25.10;88.60
45983;DHT22;31711;47.158;7.346;2023-06-05T11:49:03;25.40;88.60
45983;DHT22;31711;47.158;7.346;2023-06-05T11:51:36;25.80;88.50
45983;DHT22;31711;47.158;7.346;2023-06-05T11:54:03;25.80;87.00
45983;DHT22;31711;47.158;7.346;2023-06-05T11:56:31;26.10;87.30
45983;DHT22;31711;47.158;7.346;2023-06-05T11:58:58;26.20;88.20
45983;DHT22;31711;47.158;7.346;2023-06-05T12:01:24;26.50;86.80
45983;DHT22;31711;47.158;7.346;2023-06-05T12:06:28;26.60;84.10
45983;DHT22;31711;47.158;7.346;2023-06-05T12:09:07;26.60;85.80
45983;DHT22;31711;47.158;7.346;2023-06-05T12:11:35;26.40;85.40
45983;DHT22;31711;47.158;7.346;2023-06-05T12:14:01;26.50;84.80
45983;DHT22;31711;47.158;7.346;2023-06-05T12:16:38;26.80;87.00
45983;DHT22;31711;47.158;7.346;2023-06-05T12:19:14;27.00;88.00
45983;DHT22;31711;47.158;7.346;2023-06-05T12:21:41;26.80;84.00
45983;DHT22;31711;47.158;7.346;2023-06-05T12:24:08;26.30;83.10
45983;DHT22;31711;47.158;7.346;2023-06-05T12:27:01;26.50;84.10
45983;DHT22;31711;47.158;7.346;2023-06-05T12:29:32;26.70;85.90
45983;DHT22;31711;47.158;7.346;2023-06-05T12:32:01;26.90;81.90
45983;DHT22;31711;47.158;7.346;2023-06-05T12:34:41;26.40;82.80
45983;DHT22;31711;47.158;7.346;2023-06-05T12:37:07;26.50;82.40
45983;DHT22;31711;47.158;7.346;2023-06-05T12:39:34;26.20;81.10
45983;DHT22;31711;47.158;7.346;2023-06-05T12:42:01;26.30;85.60
45983;DHT22;31711;47.158;7.346;2023-06-05T12:44:27;26.40;86.40
45983;DHT22;31711;47.158;7.346;2023-06-05T12:46:53;27.00;85.20
45983;DHT22;31711;47.158;7.346;2023-06-05T12:49:19;27.00;84.80
45983;DHT22;31711;47.158;7.346;2023-06-05T12:51:45;26.80;80.80
45983;DHT22;31711;47.158;7.346;2023-06-05T12:54:11;26.80;81.20
45983;DHT22;31711;47.158;7.346;2023-06-05T12:56:37;26.50;84.80
45983;DHT22;31711;47.158;7.346;2023-06-05T12:59:04;27.30;84.40
45983;DHT22;31711;47.158;7.346;2023-06-05T13:01:30;27.50;80.40
45983;DHT22;31711;47.158;7.346;2023-06-05T13:03:56;27.40;80.30
45983;DHT22;31711;47.158;7.346;2023-06-05T13:06:22;27.20;79.60
45983;DHT22;31711;47.158;7.346;2023-06-05T13:08:48;27.10;78.60
45983;DHT22;31711;47.158;7.346;2023-06-05T13:11:15;27.10;78.60
45983;DHT22;31711;47.158;7.346;2023-06-05T13:13:41;27.00;81.60
45983;DHT22;31711;47.158;7.346;2023-06-05T13:16:07;27.20;78.90
45983;DHT22;31711;47.158;7.346;2023-06-05T13:18:34;26.90;79.70
45983;DHT22;31711;47.158;7.346;2023-06-05T13:21:03;26.90;80.10
45983;DHT22;31711;47.158;7.346;2023-06-05T13:23:29;27.00;79.40
45983;DHT22;31711;47.158;7.346;2023-06-05T13:25:55;27.50;80.60
45983;DHT22;31711;47.158;7.346;2023-06-05T13:28:21;27.80;78.00
45983;DHT22;31711;47.158;7.346;2023-06-05T13:30:47;27.30;76.60
45983;DHT22;31711;47.158;7.346;2023-06-05T13:33:13;27.20;77.20
45983;DHT22;31711;47.158;7.346;2023-06-05T13:35:39;27.70;78.50
45983;DHT22;31711;47.158;7.346;2023-06-05T13:38:06;28.10;76.50
45983;DHT22;31711;47.158;7.346;2023-06-05T13:40:32;27.70;76.60
45983;DHT22;31711;47.158;7.346;2023-06-05T13:42:59;27.20;76.50
45983;DHT22;31711;47.158;7.346;2023-06-05T13:45:25;27.00;75.80
45983;DHT22;31711;47.158;7.346;2023-06-05T13:47:51;27.40;75.40
45983;DHT22;31711;47.158;7.346;2023-06-05T13:50:18;27.50;74.30
45983;DHT22;31711;47.158;7.346;2023-06-05T13:52:47;27.40;75.40
45983;DHT22;31711;47.158;7.346;2023-06-05T13:55:13;27.60;76.50
45983;DHT22;31711;47.158;7.346;2023-06-05T13:57:39;27.50;75.20
45983;DHT22;31711;47.158;7.346;2023-06-05T14:00:06;27.40;74.90
45983;DHT22;31711;47.158;7.346;2023-06-05T14:02:32;27.10;72.70
45983;DHT22;31711;47.158;7.346;2023-06-05T14:04:59;27.30;76.50
45983;DHT22;31711;47.158;7.346;2023-06-05T14:07:25;27.60;75.40
45983;DHT22;31711;47.158;7.346;2023-06-05T14:09:51;27.90;76.90
45983;DHT22;31711;47.158;7.346;2023-06-05T14:12:17;27.60;75.00
45983;DHT22;31711;47.158;7.346;2023-06-05T14:14:43;27.80;74.50
45983;DHT22;31711;47.158;7.346;2023-06-05T14:17:09;28.10;75.30
45983;DHT22;31711;47.158;7.346;2023-06-05T14:19:35;27.80;76.10
45983;DHT22;31711;47.158;7.346;2023-06-05T14:22:03;28.00;74.30
45983;DHT22;31711;47.158;7.346;2023-06-05T14:24:31;28.10;74.50
45983;DHT22;31711;47.158;7.346;2023-06-05T14:26:57;27.90;72.90
45983;DHT22;31711;47.158;7.346;2023-06-05T14:29:23;27.30;72.20
45983;DHT22;31711;47.158;7.346;2023-06-05T14:31:49;27.30;73.60
45983;DHT22;31711;47.158;7.346;2023-06-05T14:34:15;27.40;73.20
45983;DHT22;31711;47.158;7.346;2023-06-05T14:36:41;27.40;75.00
45983;DHT22;31711;47.158;7.346;2023-06-05T14:39:07;27.50;73.30
45983;DHT22;31711;47.158;7.346;2023-06-05T14:41:34;27.50;74.60
45983;DHT22;31711;47.158;7.346;2023-06-05T14:44:00;27.60;74.30
45983;DHT22;31711;47.158;7.346;2023-06-05T14:46:26;27.50;74.60
45983;DHT22;31711;47.158;7.346;2023-06-05T14:48:52;27.60;74.60
45983;DHT22;31711;47.158;7.346;2023-06-05T14:51:18;27.70;74.50
45983;DHT22;31711;47.158;7.346;2023-06-05T14:53:44;27.50;73.80
45983;DHT22;31711;47.158;7.346;2023-06-05T14:56:10;27.30;72.70
45983;DHT22;31711;47.158;7.346;2023-06-05T14:58:36;26.90;72.60
45983;DHT22;31711;47.158;7.346;2023-06-05T15:01:02;26.50;72.00
45983;DHT22;31711;47.158;7.346;2023-06-05T15:03:28;26.50;73.10
45983;DHT22;31711;47.158;7.346;2023-06-05T15:05:54;26.70;73.90
45983;DHT22;31711;47.158;7.346;2023-06-05T15:08:20;26.90;76.40
45983;DHT22;31711;47.158;7.346;2023-06-05T15:10:47;26.90;73.90
45983;DHT22;31711;47.158;7.346;2023-06-05T15:13:13;26.50;71.70
45983;DHT22;31711;47.158;7.346;2023-06-05T15:15:39;26.60;74.80
45983;DHT22;31711;47.158;7.346;2023-06-05T15:18:05;26.50;73.90
45983;DHT22;31711;47.158;7.346;2023-06-05T15:20:33;26.40;72.90
45983;DHT22;31711;47.158;7.346;2023-06-05T15:22:59;26.40;72.20
45983;DHT22;31711;47.158;7.346;2023-06-05T15:25:25;26.40;71.60
45983;DHT22;31711;47.158;7.346;2023-06-05T15:27:52;26.30;71.20
45983;DHT22;31711;47.158;7.346;2023-06-05T15:30:20;26.20;72.80
45983;DHT22;31711;47.158;7.346;2023-06-05T15:32:46;26.20;72.60
45983;DHT22;31711;47.158;7.346;2023-06-05T15:35:12;26.40;75.30
45983;DHT22;31711;47.158;7.346;2023-06-05T15:37:38;26.40;71.80
45983;DHT22;31711;47.158;7.346;2023-06-05T15:40:04;26.30;74.60
45983;DHT22;31711;47.158;7.346;2023-06-05T15:42:35;26.30;75.70
45983;DHT22;31711;47.158;7.346;2023-06-05T15:45:12;26.20;74.50
45983;DHT22;31711;47.158;7.346;2023-06-05T15:47:42;26.00;74.50
45983;DHT22;31711;47.158;7.346;2023-06-05T15:50:08;25.80;75.10
45983;DHT22;31711;47.158;7.346;2023-06-05T15:52:36;25.80;76.20
45983;DHT22;31711;47.158;7.346;2023-06-05T15:55:02;25.80;75.10
45983;DHT22;31711;47.158;7.346;2023-06-05T15:57:28;25.40;75.10
45983;DHT22;31711;47.158;7.346;2023-06-05T15:59:55;25.30;75.60
45983;DHT22;31711;47.158;7.346;2023-06-05T16:02:21;25.30;75.70